createdAt,value
2023-12-14T00:01:51.453Z,36.46
2023-12-14T00:04:19.775Z,36.59
2023-12-14T00:06:47.781Z,36.67
2023-12-14T00:09:15.809Z,36.68
2023-12-14T00:11:43.861Z,36.62
2023-12-14T00:14:12.300Z,36.53
2023-12-14T00:16:41.753Z,36.68
2023-12-14T00:19:10.074Z,36.34
2023-12-14T00:21:38.056Z,36.70
2023-12-14T00:24:06.131Z,36.70
2023-12-14T00:26:34.067Z,36.37
2023-12-14T00:29:02.618Z,36.64
2023-12-14T00:31:31.027Z,36.78
2023-12-14T00:34:00.547Z,36.69
2023-12-14T00:36:29.786Z,36.63
2023-12-14T00:38:58.144Z,36.62
2023-12-14T00:41:26.117Z,36.70
2023-12-14T00:43:54.113Z,36.45
2023-12-14T00:46:22.353Z,36.86
2023-12-14T00:48:50.329Z,36.52
2023-12-14T00:51:19.710Z,36.85
2023-12-14T00:53:47.695Z,36.63
2023-12-14T00:56:16.794Z,36.81
2023-12-14T00:58:45.745Z,37.02
2023-12-14T01:01:13.758Z,36.57
2023-12-14T01:03:41.741Z,36.75
2023-12-14T01:06:10.045Z,36.69
2023-12-14T01:08:39.421Z,36.86
2023-12-14T01:11:08.865Z,36.58
2023-12-14T01:13:36.871Z,36.91
2023-12-14T01:16:05.660Z,36.64
2023-12-14T01:18:33.893Z,36.82
2023-12-14T01:21:01.871Z,36.86
2023-12-14T01:23:29.922Z,36.47
2023-12-14T01:25:59.585Z,36.82
2023-12-14T01:28:27.914Z,36.61
2023-12-14T01:30:56.228Z,36.74
2023-12-14T01:33:33.787Z,36.73
2023-12-14T01:36:02.144Z,36.83
2023-12-14T01:38:30.168Z,36.97
2023-12-14T01:41:00.421Z,36.34
2023-12-14T01:43:28.493Z,36.75
2023-12-14T01:45:56.791Z,36.62
2023-12-14T01:48:24.817Z,36.65
2023-12-14T01:50:52.889Z,36.55
2023-12-14T01:53:21.018Z,37.05
2023-12-14T01:55:49.285Z,36.56
2023-12-14T01:58:18.692Z,36.88
2023-12-14T02:00:48.827Z,36.72
2023-12-14T02:03:16.912Z,36.83
2023-12-14T02:05:45.218Z,36.82
2023-12-14T02:08:13.190Z,36.97
2023-12-14T02:10:41.266Z,37.00
2023-12-14T02:13:09.539Z,36.77
2023-12-14T02:15:39.186Z,36.71
2023-12-14T02:18:07.205Z,36.88
2023-12-14T02:20:35.214Z,36.92
2023-12-14T02:23:04.551Z,36.63
2023-12-14T02:25:32.951Z,36.89
2023-12-14T02:28:00.951Z,37.00
2023-12-14T02:30:29.017Z,36.90
2023-12-14T02:32:57.023Z,36.88
2023-12-14T02:35:25.350Z,36.73
2023-12-14T02:37:53.377Z,36.60
2023-12-14T02:40:22.791Z,36.46
2023-12-14T02:42:50.775Z,36.54
2023-12-14T02:45:19.109Z,36.47
2023-12-14T02:47:48.864Z,36.69
2023-12-14T02:50:17.037Z,37.05
2023-12-14T02:52:45.033Z,36.84
2023-12-14T02:55:13.322Z,36.67
2023-12-14T02:57:42.740Z,36.48
2023-12-14T03:00:11.881Z,36.54
2023-12-14T03:02:39.867Z,36.48
2023-12-14T03:05:10.823Z,36.48
2023-12-14T03:07:39.072Z,36.70
2023-12-14T03:10:08.120Z,36.77
2023-12-14T03:12:36.283Z,36.80
2023-12-14T03:15:08.709Z,36.42
2023-12-14T03:17:37.219Z,36.48
2023-12-14T03:20:07.492Z,36.77
2023-12-14T03:22:36.031Z,36.72
2023-12-14T03:25:04.788Z,36.78
2023-12-14T03:27:32.781Z,36.77
2023-12-14T03:30:00.985Z,36.81
2023-12-14T03:32:30.485Z,36.66
2023-12-14T03:34:58.996Z,36.67
2023-12-14T03:37:26.967Z,36.68
2023-12-14T03:39:56.336Z,36.66
2023-12-14T03:42:24.308Z,36.42
2023-12-14T03:44:52.306Z,36.54
2023-12-14T03:47:20.446Z,36.69
2023-12-14T03:49:50.657Z,36.48
2023-12-14T03:52:18.630Z,36.47
2023-12-14T03:54:47.366Z,36.88
2023-12-14T03:57:15.668Z,36.64
2023-12-14T03:59:43.631Z,36.41
2023-12-14T04:02:11.654Z,36.77
2023-12-14T04:04:39.705Z,36.81
2023-12-14T04:07:09.345Z,36.64
2023-12-14T04:09:37.375Z,36.54
2023-12-14T04:12:06.267Z,36.41
2023-12-14T04:14:34.204Z,36.35
2023-12-14T04:17:02.491Z,36.74
2023-12-14T04:19:30.570Z,36.91
2023-12-14T04:21:58.539Z,36.83
2023-12-14T04:24:28.504Z,36.73
2023-12-14T04:26:56.750Z,36.60
2023-12-14T04:29:24.711Z,36.40
2023-12-14T04:31:54.332Z,36.54
2023-12-14T04:34:22.412Z,36.59
2023-12-14T04:36:50.748Z,36.27
2023-12-14T04:39:19.364Z,36.80
2023-12-14T04:41:49.219Z,36.87
2023-12-14T04:44:17.583Z,36.43
2023-12-14T04:46:45.538Z,36.83
2023-12-14T04:49:13.628Z,36.54
2023-12-14T04:51:41.569Z,36.29
2023-12-14T04:54:09.532Z,36.57
2023-12-14T04:56:37.820Z,36.50
2023-12-14T04:59:07.679Z,36.54
2023-12-14T05:01:35.734Z,36.67
2023-12-14T05:04:04.030Z,36.56
2023-12-14T05:06:34.248Z,36.57
2023-12-14T05:09:04.838Z,36.54
2023-12-14T05:11:32.843Z,36.57
2023-12-14T05:14:00.887Z,36.70
2023-12-14T05:16:30.500Z,36.40
2023-12-14T05:18:59.104Z,36.54
2023-12-14T05:21:27.049Z,36.52
2023-12-14T05:23:55.378Z,36.58
2023-12-14T05:26:23.579Z,36.54
2023-12-14T05:28:51.564Z,36.57
2023-12-14T05:31:19.949Z,36.57
2023-12-14T05:33:49.306Z,36.44
2023-12-14T05:36:17.593Z,36.39
2023-12-14T05:38:45.733Z,36.29
2023-12-14T05:41:13.714Z,36.48
2023-12-14T05:43:42.182Z,36.42
2023-12-14T05:46:10.450Z,36.35
2023-12-14T05:48:39.755Z,36.51
2023-12-14T05:51:09.261Z,36.42
2023-12-14T05:53:40.690Z,36.47
2023-12-14T05:56:10.690Z,36.60
2023-12-14T05:58:38.683Z,36.68
2023-12-14T06:01:06.843Z,36.21
2023-12-14T06:03:34.799Z,36.62
2023-12-14T06:06:02.820Z,36.74
2023-12-14T06:08:32.463Z,36.23
2023-12-14T06:11:00.450Z,36.44
2023-12-14T06:13:28.519Z,36.46
2023-12-14T06:15:56.461Z,36.36
2023-12-14T06:18:24.763Z,36.67
2023-12-14T06:20:52.735Z,36.10
2023-12-14T06:23:20.830Z,36.39
2023-12-14T06:25:50.243Z,36.30
2023-12-14T06:28:18.521Z,36.28
2023-12-14T06:30:46.632Z,36.37
2023-12-14T06:33:14.748Z,36.15
2023-12-14T06:35:42.783Z,36.49
2023-12-14T06:38:11.139Z,36.20
2023-12-14T06:40:39.113Z,36.44
2023-12-14T06:43:08.481Z,36.39
2023-12-14T06:45:39.056Z,36.36
2023-12-14T06:48:07.888Z,36.12
2023-12-14T06:50:35.966Z,36.38
2023-12-14T06:53:04.699Z,36.05
2023-12-14T06:55:32.716Z,36.42
2023-12-14T06:58:00.959Z,36.30
2023-12-14T07:00:30.697Z,36.57
2023-12-14T07:02:58.659Z,36.42
2023-12-14T07:05:27.236Z,36.35
2023-12-14T07:07:55.612Z,36.03
2023-12-14T07:10:23.565Z,36.45
2023-12-14T07:12:51.587Z,36.24
2023-12-14T07:15:19.616Z,36.45
2023-12-14T07:17:49.295Z,36.29
2023-12-14T07:20:17.354Z,36.22
2023-12-14T07:22:45.396Z,36.25
2023-12-14T07:25:13.386Z,36.56
2023-12-14T07:27:41.587Z,36.41
2023-12-14T07:30:10.762Z,36.21
2023-12-14T07:32:39.102Z,36.16
2023-12-14T07:35:09.693Z,36.18
2023-12-14T07:37:37.706Z,36.09
2023-12-14T07:40:06.578Z,36.44
2023-12-14T07:42:34.836Z,36.11
2023-12-14T07:45:03.051Z,36.32
2023-12-14T07:47:31.324Z,36.26
2023-12-14T07:49:59.338Z,36.12
2023-12-14T07:52:28.800Z,36.10
2023-12-14T07:54:56.798Z,36.29
2023-12-14T07:57:25.016Z,36.50
2023-12-14T07:59:52.957Z,36.27
2023-12-14T08:02:20.958Z,36.10
2023-12-14T08:04:48.937Z,36.53
2023-12-14T08:07:17.226Z,36.14
2023-12-14T08:09:46.572Z,36.21
2023-12-14T08:12:14.522Z,36.28
2023-12-14T08:14:44.886Z,36.27
2023-12-14T08:17:13.263Z,36.22
2023-12-14T08:19:41.295Z,36.20
2023-12-14T08:22:12.119Z,35.99
2023-12-14T08:24:40.120Z,36.34
2023-12-14T08:27:09.693Z,36.40
2023-12-14T08:29:37.730Z,36.27
2023-12-14T08:32:06.575Z,36.29
2023-12-14T08:34:34.594Z,36.21
2023-12-14T08:37:03.328Z,36.43
2023-12-14T08:39:31.269Z,36.24
2023-12-14T08:41:59.241Z,36.32
2023-12-14T08:44:28.594Z,36.43
2023-12-14T08:46:56.635Z,36.41
2023-12-14T08:49:25.062Z,36.12
2023-12-14T08:51:53.376Z,36.38
2023-12-14T08:54:21.337Z,36.12
2023-12-14T08:56:49.583Z,36.32
2023-12-14T08:59:18.464Z,36.34
2023-12-14T09:01:47.929Z,36.30
2023-12-14T09:04:16.037Z,36.17
2023-12-14T09:06:46.176Z,35.93
2023-12-14T09:09:14.232Z,36.16
2023-12-14T09:11:42.189Z,35.96
2023-12-14T09:14:10.224Z,36.20
2023-12-14T09:16:38.622Z,35.94
2023-12-14T09:19:08.115Z,36.10
2023-12-14T09:21:41.315Z,35.94
2023-12-14T09:24:14.705Z,36.24
2023-12-14T09:26:43.052Z,36.06
2023-12-14T09:29:11.043Z,35.93
2023-12-14T09:31:39.126Z,36.15
2023-12-14T09:34:08.637Z,35.99
2023-12-14T09:36:36.998Z,36.16
2023-12-14T09:39:05.705Z,36.06
2023-12-14T09:41:33.685Z,36.22
2023-12-14T09:44:03.290Z,36.11
2023-12-14T09:46:31.295Z,36.11
2023-12-14T09:48:59.348Z,36.25
2023-12-14T09:51:29.089Z,36.10
2023-12-14T09:53:59.267Z,36.06
2023-12-14T09:56:27.649Z,36.05
2023-12-14T09:58:55.710Z,36.15
2023-12-14T10:01:26.215Z,35.91
2023-12-14T10:04:09.076Z,35.90
2023-12-14T10:06:38.522Z,36.04
2023-12-14T10:09:10.268Z,36.22
2023-12-14T10:11:38.763Z,36.23
2023-12-14T10:14:19.821Z,35.78
2023-12-14T10:16:47.981Z,36.21
2023-12-14T10:19:16.076Z,36.10
2023-12-14T10:21:45.471Z,36.09
2023-12-14T10:24:14.196Z,36.08
2023-12-14T10:26:43.382Z,35.83
2023-12-14T10:29:11.353Z,35.85
2023-12-14T10:31:39.411Z,35.99
2023-12-14T10:34:07.513Z,36.26
2023-12-14T10:36:35.778Z,35.97
2023-12-14T10:39:06.460Z,35.78
2023-12-14T10:41:34.473Z,36.03
2023-12-14T10:44:18.801Z,35.94
2023-12-14T10:46:50.591Z,36.08
2023-12-14T10:49:18.683Z,35.98
2023-12-14T10:51:49.127Z,35.94
2023-12-14T10:54:19.054Z,36.05
2023-12-14T10:56:46.977Z,36.00
2023-12-14T10:59:17.208Z,35.99
2023-12-14T11:01:45.388Z,35.75
2023-12-14T11:04:15.989Z,35.92
2023-12-14T11:06:48.357Z,36.00
2023-12-14T11:09:16.545Z,36.10
2023-12-14T11:11:58.642Z,36.10
2023-12-14T11:14:26.914Z,35.92
2023-12-14T11:16:56.490Z,35.97
2023-12-14T11:19:31.709Z,35.66
2023-12-14T11:22:13.885Z,35.92
2023-12-14T11:24:44.665Z,35.93
2023-12-14T11:27:14.511Z,35.93
2023-12-14T11:29:42.967Z,35.96
2023-12-14T11:32:11.192Z,35.96
2023-12-14T11:34:41.516Z,36.09
2023-12-14T11:37:10.279Z,35.98
2023-12-14T11:39:38.335Z,35.88
2023-12-14T11:42:08.057Z,35.68
2023-12-14T11:44:38.277Z,35.86
2023-12-14T11:47:07.739Z,35.89
2023-12-14T11:49:35.764Z,35.93
2023-12-14T11:52:04.615Z,35.83
2023-12-14T11:54:32.672Z,36.04
2023-12-14T11:57:03.867Z,36.02
2023-12-14T11:59:31.927Z,35.85
2023-12-14T12:02:02.658Z,35.91
2023-12-14T12:04:31.697Z,36.01
2023-12-14T12:07:03.721Z,35.72
2023-12-14T12:09:39.283Z,35.97
2023-12-14T12:12:11.004Z,35.79
2023-12-14T12:14:39.058Z,35.81
2023-12-14T12:17:09.598Z,35.88
2023-12-14T12:19:38.836Z,35.75
2023-12-14T12:22:06.963Z,35.76
2023-12-14T12:24:35.334Z,36.08
2023-12-14T12:27:03.387Z,35.98
2023-12-14T12:29:31.399Z,35.51
2023-12-14T12:31:59.494Z,35.60
2023-12-14T12:34:29.050Z,35.85
2023-12-14T12:36:58.857Z,35.92
2023-12-14T12:39:26.857Z,35.84
2023-12-14T12:41:54.804Z,35.50
2023-12-14T12:44:22.791Z,35.72
2023-12-14T12:46:58.285Z,35.73
2023-12-14T12:49:35.820Z,35.52
2023-12-14T12:52:04.105Z,35.57
2023-12-14T12:54:33.474Z,36.00
2023-12-14T12:57:01.466Z,35.78
2023-12-14T12:59:29.373Z,35.43
2023-12-14T13:01:57.289Z,35.69
2023-12-14T13:04:27.329Z,35.60
2023-12-14T13:06:56.643Z,35.91
2023-12-14T13:09:24.611Z,35.62
2023-12-14T13:11:53.518Z,35.73
2023-12-14T13:14:21.528Z,35.76
2023-12-14T13:16:50.909Z,35.88
2023-12-14T13:19:18.971Z,35.65
2023-12-14T13:21:46.912Z,35.86
2023-12-14T13:24:16.218Z,35.66
2023-12-14T13:26:44.199Z,35.97
2023-12-14T13:29:12.296Z,35.66
2023-12-14T13:31:40.311Z,35.85
2023-12-14T13:34:08.319Z,35.69
2023-12-14T13:36:36.261Z,35.68
2023-12-14T13:39:04.421Z,35.72
2023-12-14T13:41:45.298Z,35.67
2023-12-14T13:44:18.408Z,35.69
2023-12-14T13:46:46.580Z,35.56
2023-12-14T13:49:14.993Z,35.74
2023-12-14T13:51:42.951Z,35.55
2023-12-14T13:54:10.955Z,35.73
2023-12-14T13:56:41.489Z,35.78
2023-12-14T13:59:09.451Z,35.68
2023-12-14T14:01:38.911Z,35.54
2023-12-14T14:04:06.825Z,35.81
2023-12-14T14:06:35.144Z,35.96
2023-12-14T14:09:03.395Z,35.75
2023-12-14T14:11:31.457Z,35.59
2023-12-14T14:14:00.922Z,35.57
2023-12-14T14:16:28.897Z,35.49
2023-12-14T14:18:56.833Z,35.64
2023-12-14T14:21:24.857Z,35.61
2023-12-14T14:23:52.788Z,35.54
2023-12-14T14:26:21.017Z,35.63
2023-12-14T14:28:50.037Z,35.41
2023-12-14T14:31:19.376Z,35.52
2023-12-14T14:33:52.206Z,35.59
2023-12-14T14:36:23.627Z,35.67
2023-12-14T14:38:53.472Z,35.72
2023-12-14T14:41:22.767Z,35.80
2023-12-14T14:43:50.868Z,35.71
2023-12-14T14:46:20.264Z,35.77
2023-12-14T14:48:48.656Z,35.69
2023-12-14T14:51:33.101Z,35.71
2023-12-14T14:54:02.359Z,35.87
2023-12-14T14:56:30.320Z,35.51
2023-12-14T14:58:59.029Z,35.78
2023-12-14T15:01:32.328Z,35.63
2023-12-14T15:04:01.734Z,35.57
2023-12-14T15:06:29.816Z,35.52
2023-12-14T15:08:58.832Z,35.27
2023-12-14T15:11:29.880Z,35.57
2023-12-14T15:13:59.538Z,35.52
2023-12-14T15:16:27.653Z,35.65
2023-12-14T15:19:01.571Z,35.48
2023-12-14T15:21:31.019Z,35.48
2023-12-14T15:23:58.956Z,35.46
2023-12-14T15:26:30.418Z,35.65
2023-12-14T15:28:58.810Z,35.43
2023-12-14T15:31:33.060Z,35.25
2023-12-14T15:34:03.987Z,35.54
2023-12-14T15:36:35.012Z,35.31
2023-12-14T15:39:05.461Z,35.52
2023-12-14T15:41:33.546Z,35.32
2023-12-14T15:44:03.297Z,35.53
2023-12-14T15:46:31.688Z,35.41
2023-12-14T15:49:00.086Z,35.48
2023-12-14T15:51:31.879Z,35.48
2023-12-14T15:54:00.712Z,35.53
2023-12-14T15:56:31.660Z,35.38
2023-12-14T15:59:02.752Z,35.40
2023-12-14T16:01:31.259Z,35.25
2023-12-14T16:03:59.207Z,35.47
2023-12-14T16:06:27.159Z,35.24
2023-12-14T16:08:56.533Z,35.53
2023-12-14T16:11:25.851Z,35.21
2023-12-14T16:13:57.989Z,35.33
2023-12-14T16:16:25.980Z,35.43
2023-12-14T16:18:55.283Z,35.50
2023-12-14T16:21:23.366Z,35.21
2023-12-14T16:23:51.832Z,35.35
2023-12-14T16:26:22.628Z,35.59
2023-12-14T16:28:51.853Z,35.36
2023-12-14T16:31:22.608Z,35.37
2023-12-14T16:33:50.757Z,35.32
2023-12-14T16:36:18.887Z,35.14
2023-12-14T16:38:48.969Z,35.49
2023-12-14T16:41:16.981Z,35.47
2023-12-14T16:43:46.374Z,35.32
2023-12-14T16:46:18.774Z,35.34
2023-12-14T16:48:47.520Z,35.10
2023-12-14T16:51:15.568Z,35.42
2023-12-14T16:53:43.848Z,35.47
2023-12-14T16:56:11.835Z,35.33
2023-12-14T16:58:39.842Z,35.31
2023-12-14T17:01:09.514Z,35.24
2023-12-14T17:03:44.357Z,35.24
2023-12-14T17:06:14.766Z,35.38
2023-12-14T17:08:44.333Z,35.40
2023-12-14T17:11:12.906Z,35.57
2023-12-14T17:13:40.840Z,35.33
2023-12-14T17:16:15.171Z,35.38
2023-12-14T17:18:44.130Z,35.18
2023-12-14T17:21:18.941Z,35.30
2023-12-14T17:23:47.010Z,35.52
2023-12-14T17:26:15.413Z,35.08
2023-12-14T17:28:45.859Z,35.35
2023-12-14T17:31:15.385Z,35.29
2023-12-14T17:33:44.871Z,35.40
2023-12-14T17:36:13.127Z,35.16
2023-12-14T17:38:41.060Z,35.31
2023-12-14T17:41:13.537Z,35.08
2023-12-14T17:43:43.568Z,35.34
2023-12-14T17:46:16.360Z,35.38
2023-12-14T17:48:46.156Z,35.41
2023-12-14T17:51:14.123Z,35.17
2023-12-14T17:53:44.833Z,35.48
2023-12-14T17:56:13.076Z,35.24
2023-12-14T17:58:44.526Z,35.24
2023-12-14T18:01:15.403Z,35.31
2023-12-14T18:03:46.418Z,35.14
2023-12-14T18:06:14.372Z,35.08
2023-12-14T18:08:44.768Z,35.26
2023-12-14T18:11:14.017Z,35.15
2023-12-14T18:13:42.052Z,35.18
2023-12-14T18:16:10.660Z,35.26
2023-12-14T18:18:40.797Z,35.17
2023-12-14T18:21:10.259Z,35.38
2023-12-14T18:23:40.550Z,35.26
2023-12-14T18:26:11.004Z,35.13
2023-12-14T18:28:42.068Z,35.37
2023-12-14T18:31:10.864Z,35.13
2023-12-14T18:33:40.963Z,35.23
2023-12-14T18:36:10.968Z,35.36
2023-12-14T18:38:39.196Z,35.21
2023-12-14T18:41:07.336Z,35.22
2023-12-14T18:43:40.026Z,35.06
2023-12-14T18:46:08.315Z,35.39
2023-12-14T18:48:36.807Z,35.28
2023-12-14T18:51:05.174Z,35.20
2023-12-14T18:53:34.565Z,35.09
2023-12-14T18:56:04.514Z,35.15
2023-12-14T18:58:36.735Z,35.28
2023-12-14T19:01:06.557Z,35.54
2023-12-14T19:03:36.575Z,35.21
2023-12-14T19:06:11.867Z,35.05
2023-12-14T19:08:42.488Z,35.21
2023-12-14T19:11:19.072Z,35.32
2023-12-14T19:13:49.681Z,35.03
2023-12-14T19:16:24.181Z,35.02
2023-12-14T19:18:52.566Z,35.00
2023-12-14T19:21:21.187Z,35.10
2023-12-14T19:23:53.180Z,34.93
2023-12-14T19:26:21.395Z,35.10
2023-12-14T19:28:49.402Z,35.20
2023-12-14T19:31:17.410Z,35.24
2023-12-14T19:33:54.622Z,35.25
2023-12-14T19:36:23.926Z,35.08
2023-12-14T19:38:57.008Z,35.18
2023-12-14T19:41:25.130Z,35.05
2023-12-14T19:43:53.073Z,35.04
2023-12-14T19:46:22.545Z,35.27
2023-12-14T19:48:50.813Z,35.02
2023-12-14T19:51:19.200Z,35.05
2023-12-14T19:53:47.091Z,35.17
2023-12-14T19:56:20.291Z,35.14
2023-12-14T19:58:49.874Z,35.03
2023-12-14T20:01:19.600Z,35.09
2023-12-14T20:03:48.910Z,35.19
2023-12-14T20:06:23.044Z,34.98
2023-12-14T20:08:51.136Z,34.99
2023-12-14T20:11:20.958Z,34.96
2023-12-14T20:13:49.038Z,34.96
2023-12-14T20:16:16.974Z,35.06
2023-12-14T20:18:45.023Z,35.18
2023-12-14T20:21:13.051Z,35.01
2023-12-14T20:23:41.070Z,34.92
2023-12-14T20:26:10.218Z,34.86
2023-12-14T20:28:40.321Z,34.95
2023-12-14T20:31:09.515Z,34.95
2023-12-14T20:33:37.958Z,35.07
2023-12-14T20:36:08.335Z,34.85
2023-12-14T20:38:40.209Z,34.63
2023-12-14T20:41:09.469Z,34.97
2023-12-14T20:43:40.085Z,34.96
2023-12-14T20:46:09.312Z,34.89
2023-12-14T20:48:38.865Z,34.81
2023-12-14T20:51:07.381Z,34.79
2023-12-14T20:53:35.317Z,34.86
2023-12-14T20:56:04.356Z,34.83
2023-12-14T20:58:32.553Z,35.12
2023-12-14T21:01:01.971Z,35.09
2023-12-14T21:03:30.310Z,34.72
2023-12-14T21:05:58.357Z,34.78
2023-12-14T21:08:27.045Z,34.90
2023-12-14T21:10:55.218Z,35.02
2023-12-14T21:13:23.664Z,35.02
2023-12-14T21:15:51.764Z,34.61
2023-12-14T21:18:21.280Z,34.91
2023-12-14T21:20:50.928Z,34.83
2023-12-14T21:23:20.444Z,34.90
2023-12-14T21:26:04.332Z,34.61
2023-12-14T21:28:31.520Z,34.75
2023-12-14T21:30:59.916Z,34.80
2023-12-14T21:33:32.162Z,34.96
2023-12-14T21:36:00.669Z,34.90
2023-12-14T21:38:28.677Z,34.77
2023-12-14T21:40:56.697Z,34.89
2023-12-14T21:43:24.630Z,34.68
2023-12-14T21:45:52.590Z,35.01
2023-12-14T21:48:20.569Z,34.86
2023-12-14T21:50:50.104Z,34.85
2023-12-14T21:53:18.172Z,34.60
2023-12-14T21:55:46.239Z,34.73
2023-12-14T21:58:14.207Z,34.74
2023-12-14T22:00:42.151Z,34.70
2023-12-14T22:03:10.576Z,34.62
2023-12-14T22:05:38.955Z,34.66
2023-12-14T22:08:08.443Z,34.89
2023-12-14T22:10:36.538Z,35.03
2023-12-14T22:13:04.835Z,34.89
2023-12-14T22:15:32.804Z,34.64
2023-12-14T22:18:00.864Z,34.70
2023-12-14T22:20:28.921Z,34.60
2023-12-14T22:22:58.266Z,34.77
2023-12-14T22:25:27.611Z,34.64
2023-12-14T22:27:55.513Z,34.62
2023-12-14T22:30:23.465Z,34.55
2023-12-14T22:32:51.727Z,34.86
2023-12-14T22:35:19.809Z,34.85
2023-12-14T22:37:47.818Z,34.95
2023-12-14T22:40:16.183Z,34.53
2023-12-14T22:42:45.666Z,34.82
2023-12-14T22:45:13.721Z,34.86
2023-12-14T22:47:41.912Z,34.73
2023-12-14T22:50:10.983Z,34.75
2023-12-14T22:52:39.037Z,34.80
2023-12-14T22:55:11.552Z,34.88
2023-12-14T22:57:39.720Z,34.95
2023-12-14T23:00:13.477Z,34.74
2023-12-14T23:02:41.454Z,34.70
2023-12-14T23:05:09.915Z,34.97
2023-12-14T23:07:38.178Z,34.81
2023-12-14T23:10:07.045Z,34.82
2023-12-14T23:12:35.430Z,34.61
2023-12-14T23:15:05.105Z,34.82
2023-12-14T23:17:34.574Z,34.70
2023-12-14T23:20:03.100Z,34.50
2023-12-14T23:22:31.454Z,34.64
2023-12-14T23:24:59.391Z,34.75
2023-12-14T23:27:27.310Z,34.77
2023-12-14T23:29:55.265Z,34.73
2023-12-14T23:32:23.617Z,34.92
2023-12-14T23:34:53.042Z,35.01
2023-12-14T23:37:21.199Z,35.02
2023-12-14T23:39:49.139Z,34.99
2023-12-14T23:42:17.424Z,34.54
2023-12-14T23:44:45.469Z,35.05
2023-12-14T23:47:13.595Z,34.76
2023-12-14T23:49:42.017Z,34.80
2023-12-14T23:52:11.457Z,34.85
2023-12-14T23:54:39.377Z,34.56
2023-12-14T23:57:07.339Z,34.81
2023-12-14T23:59:35.325Z,35.04
